createdAt,value
2022-08-26T00:01:52.708Z,95992.25
2022-08-26T00:04:22.528Z,95998.22
2022-08-26T00:06:51.546Z,95997.56
2022-08-26T00:09:18.399Z,95991.88
2022-08-26T00:11:45.571Z,95992.41
2022-08-26T00:14:12.202Z,95991.50
2022-08-26T00:16:40.982Z,95999.38
2022-08-26T00:19:13.925Z,95986.91
2022-08-26T00:21:41.717Z,95985.22
2022-08-26T00:24:10.651Z,95984.66
2022-08-26T00:26:41.403Z,95988.22
2022-08-26T00:29:08.484Z,95982.44
2022-08-26T00:31:37.192Z,95985.34
2022-08-26T00:34:04.645Z,95977.97
2022-08-26T00:36:31.974Z,95981.38
2022-08-26T00:38:58.603Z,95980.56
2022-08-26T00:41:27.586Z,95978.84
2022-08-26T00:43:56.565Z,95984.03
2022-08-26T00:46:24.322Z,95993.47
2022-08-26T00:48:53.756Z,95995.66
2022-08-26T00:51:20.378Z,95991.56
2022-08-26T00:53:47.922Z,95987.97
2022-08-26T00:56:14.424Z,95991.28
2022-08-26T00:58:41.233Z,95990.19
2022-08-26T01:01:08.037Z,95985.34
2022-08-26T01:03:34.976Z,95989.47
2022-08-26T01:06:01.753Z,95993.81
2022-08-26T01:08:29.547Z,95987.66
2022-08-26T01:10:57.093Z,95995.44
2022-08-26T01:13:23.993Z,96000.91
2022-08-26T01:15:50.830Z,96002.91
2022-08-26T01:18:17.514Z,95997.88
2022-08-26T01:20:45.120Z,95995.19
2022-08-26T01:23:11.661Z,95998.94
2022-08-26T01:25:40.745Z,96000.88
2022-08-26T01:28:09.908Z,96003.38
2022-08-26T01:30:36.750Z,96010.50
2022-08-26T01:33:03.977Z,96006.28
2022-08-26T01:35:37.831Z,96002.97
2022-08-26T01:38:04.608Z,96007.09
2022-08-26T01:40:32.142Z,96002.16
2022-08-26T01:42:58.842Z,96001.16
2022-08-26T01:45:26.259Z,95992.75
2022-08-26T01:47:56.621Z,96001.38
2022-08-26T01:50:28.212Z,96007.38
2022-08-26T01:52:56.814Z,96009.50
2022-08-26T01:55:25.622Z,96001.78
2022-08-26T01:57:59.747Z,96012.59
2022-08-26T02:00:27.498Z,96010.31
2022-08-26T02:02:55.329Z,96019.91
2022-08-26T02:05:24.013Z,96010.34
2022-08-26T02:07:51.652Z,96013.25
2022-08-26T02:10:18.418Z,96005.88
2022-08-26T02:12:49.570Z,96009.94
2022-08-26T02:15:21.636Z,96008.06
2022-08-26T02:17:48.530Z,96010.47
2022-08-26T02:20:19.583Z,96008.50
2022-08-26T02:22:46.707Z,96013.56
2022-08-26T02:25:14.140Z,96016.09
2022-08-26T02:27:41.721Z,96024.72
2022-08-26T02:30:10.698Z,96019.16
2022-08-26T02:32:37.966Z,96013.88
2022-08-26T02:35:07.028Z,96017.56
2022-08-26T02:37:34.519Z,96015.19
2022-08-26T02:40:02.010Z,96013.50
2022-08-26T02:42:30.077Z,96015.59
2022-08-26T02:44:57.010Z,96013.84
2022-08-26T02:47:24.870Z,96014.50
2022-08-26T02:49:52.745Z,96020.50
2022-08-26T02:52:19.490Z,96015.81
2022-08-26T02:54:46.269Z,96020.53
2022-08-26T02:57:18.377Z,96015.66
2022-08-26T02:59:44.956Z,96012.81
2022-08-26T03:02:12.049Z,96011.72
2022-08-26T03:04:39.135Z,96016.88
2022-08-26T03:07:06.103Z,96011.50
2022-08-26T03:09:33.947Z,96002.03
2022-08-26T03:12:00.550Z,96005.63
2022-08-26T03:14:29.684Z,96006.41
2022-08-26T03:16:56.624Z,96006.34
2022-08-26T03:19:23.398Z,96003.75
2022-08-26T03:21:52.358Z,96005.47
2022-08-26T03:24:19.106Z,96008.59
2022-08-26T03:26:52.752Z,96004.28
2022-08-26T03:29:20.601Z,96011.34
2022-08-26T03:31:47.453Z,96003.59
2022-08-26T03:34:14.413Z,96004.13
2022-08-26T03:36:43.294Z,95997.16
2022-08-26T03:39:12.864Z,96001.63
2022-08-26T03:41:42.376Z,95998.66
2022-08-26T03:44:09.365Z,96003.69
2022-08-26T03:46:39.422Z,96010.53
2022-08-26T03:49:06.928Z,96014.50
2022-08-26T03:51:38.885Z,96009.09
2022-08-26T03:54:05.920Z,96000.28
2022-08-26T03:56:35.259Z,96009.41
2022-08-26T03:59:07.634Z,96000.69
2022-08-26T04:01:34.697Z,96009.63
2022-08-26T04:04:03.544Z,96007.66
2022-08-26T04:06:30.148Z,96010.03
2022-08-26T04:08:57.033Z,96009.41
2022-08-26T04:11:23.652Z,96010.66
2022-08-26T04:13:52.820Z,96014.25
2022-08-26T04:16:20.347Z,96011.88
2022-08-26T04:18:47.963Z,96013.53
2022-08-26T04:21:15.179Z,96013.78
2022-08-26T04:23:47.765Z,96015.63
2022-08-26T04:26:17.424Z,96024.69
2022-08-26T04:28:44.204Z,96015.88
2022-08-26T04:31:11.311Z,96023.34
2022-08-26T04:33:41.657Z,96010.25
2022-08-26T04:36:10.951Z,96017.41
2022-08-26T04:38:37.810Z,96016.97
2022-08-26T04:41:05.539Z,96015.97
2022-08-26T04:43:37.515Z,96022.84
2022-08-26T04:48:33.648Z,96017.84
2022-08-26T04:51:00.593Z,96016.88
2022-08-26T04:53:28.639Z,96021.91
2022-08-26T04:55:55.769Z,96012.88
2022-08-26T04:58:23.329Z,96011.91
2022-08-26T05:00:50.191Z,96011.84
2022-08-26T05:03:19.173Z,96007.44
2022-08-26T05:14:25.736Z,96013.69
2022-08-26T05:16:52.341Z,96020.72
2022-08-26T05:19:19.495Z,96012.66
2022-08-26T05:21:48.403Z,96016.84
2022-08-26T05:24:15.307Z,96014.81
2022-08-26T05:26:44.575Z,96020.41
2022-08-26T05:29:11.868Z,96014.00
2022-08-26T05:31:38.779Z,96006.78
2022-08-26T05:34:05.265Z,96006.19
2022-08-26T05:36:33.896Z,96015.34
2022-08-26T05:39:01.604Z,96012.72
2022-08-26T05:41:34.376Z,96015.91
2022-08-26T05:44:03.337Z,96025.84
2022-08-26T05:46:30.303Z,96028.50
2022-08-26T05:48:58.214Z,96030.28
2022-08-26T05:51:26.085Z,96029.94
2022-08-26T05:59:56.040Z,96038.16
2022-08-26T06:02:28.011Z,96035.72
2022-08-26T06:04:57.118Z,96041.09
2022-08-26T06:07:24.167Z,96036.69
2022-08-26T06:10:01.541Z,96038.19
2022-08-26T06:12:40.078Z,96043.34
2022-08-26T06:15:08.618Z,96045.72
2022-08-26T06:17:35.585Z,96048.91
2022-08-26T06:20:09.377Z,96049.91
2022-08-26T06:22:36.024Z,96049.41
2022-08-26T06:25:06.868Z,96054.91
2022-08-26T06:27:34.695Z,96054.28
2022-08-26T06:30:02.601Z,96046.81
2022-08-26T06:32:29.565Z,96043.88
2022-08-26T06:34:57.768Z,96050.59
2022-08-26T06:37:31.776Z,96051.78
2022-08-26T06:40:02.272Z,96052.75
2022-08-26T06:42:32.234Z,96061.53
2022-08-26T06:45:06.385Z,96059.28
2022-08-26T06:47:33.794Z,96061.53
2022-08-26T06:50:00.723Z,96060.66
2022-08-26T06:52:28.830Z,96068.41
2022-08-26T06:57:49.683Z,96069.66
2022-08-26T07:00:18.508Z,96072.28
2022-08-26T07:05:38.369Z,96077.16
2022-08-26T07:08:12.679Z,96070.91
2022-08-26T07:10:46.802Z,96079.94
2022-08-26T07:13:13.526Z,96074.91
2022-08-26T07:15:41.244Z,96077.53
2022-08-26T07:18:07.836Z,96075.66
2022-08-26T07:20:36.239Z,96079.41
2022-08-26T07:23:03.205Z,96087.72
2022-08-26T07:25:30.242Z,96085.81
2022-08-26T07:27:57.042Z,96091.06
2022-08-26T07:30:24.309Z,96081.19
2022-08-26T07:32:51.359Z,96089.56
2022-08-26T07:35:18.023Z,96091.69
2022-08-26T07:37:47.264Z,96097.28
2022-08-26T07:40:15.231Z,96099.38
2022-08-26T07:42:51.571Z,96103.09
2022-08-26T07:45:19.201Z,96096.47
2022-08-26T07:47:46.070Z,96106.28
2022-08-26T07:50:21.935Z,96094.75
2022-08-26T07:53:11.126Z,96101.41
2022-08-26T07:55:39.914Z,96104.22
2022-08-26T07:58:09.795Z,96099.31
2022-08-26T08:00:37.425Z,96098.09
2022-08-26T08:03:06.476Z,96101.53
2022-08-26T08:05:33.902Z,96091.00
2022-08-26T08:08:27.031Z,96095.59
2022-08-26T08:10:49.616Z,96101.13
2022-08-26T08:13:17.325Z,96096.50
2022-08-26T08:15:45.590Z,96099.34
2022-08-26T08:18:15.852Z,96094.16
2022-08-26T08:20:54.390Z,96088.00
2022-08-26T08:23:26.281Z,96094.66
2022-08-26T08:25:55.281Z,96093.44
2022-08-26T08:28:24.566Z,96095.22
2022-08-26T08:30:53.704Z,96087.16
2022-08-26T08:33:20.635Z,96101.00
2022-08-26T08:35:48.946Z,96090.09
2022-08-26T08:38:19.355Z,96093.16
2022-08-26T08:43:39.489Z,96095.75
2022-08-26T08:49:01.825Z,96091.97
2022-08-26T08:51:28.770Z,96098.63
2022-08-26T08:53:56.125Z,96100.44
2022-08-26T08:56:24.633Z,96107.25
2022-08-26T08:58:53.495Z,96110.28
2022-08-26T09:01:26.822Z,96111.06
2022-08-26T09:03:53.457Z,96109.66
2022-08-26T09:06:21.181Z,96111.09
2022-08-26T09:08:50.063Z,96111.72
2022-08-26T09:11:17.633Z,96112.63
2022-08-26T09:13:44.177Z,96118.69
2022-08-26T09:16:11.195Z,96117.47
2022-08-26T09:18:40.385Z,96117.81
2022-08-26T09:23:56.751Z,96132.00
2022-08-26T09:26:29.330Z,96133.75
2022-08-26T09:28:56.480Z,96133.34
2022-08-26T09:31:23.472Z,96128.63
2022-08-26T09:33:50.711Z,96137.31
2022-08-26T09:36:17.298Z,96130.84
2022-08-26T09:38:50.180Z,96133.34
2022-08-26T09:41:19.045Z,96129.63
2022-08-26T09:43:46.319Z,96132.47
2022-08-26T09:46:13.859Z,96127.78
2022-08-26T09:48:41.149Z,96131.53
2022-08-26T09:51:08.565Z,96128.94
2022-08-26T09:53:35.419Z,96137.66
2022-08-26T09:56:02.285Z,96125.78
2022-08-26T09:58:30.710Z,96126.03
2022-08-26T10:01:01.359Z,96123.91
2022-08-26T10:03:28.049Z,96131.09
2022-08-26T10:05:58.526Z,96121.72
2022-08-26T10:08:34.167Z,96125.28
2022-08-26T10:11:03.354Z,96123.69
2022-08-26T10:13:30.790Z,96114.88
2022-08-26T10:18:27.910Z,96114.03
2022-08-26T10:21:04.955Z,96118.59
2022-08-26T10:23:36.716Z,96117.91
2022-08-26T10:26:10.822Z,96113.88
2022-08-26T10:28:38.976Z,96119.28
2022-08-26T10:31:09.137Z,96115.97
2022-08-26T10:33:35.990Z,96114.31
2022-08-26T10:36:04.139Z,96117.13
2022-08-26T10:38:31.223Z,96115.38
2022-08-26T10:40:58.176Z,96117.19
2022-08-26T10:43:26.192Z,96115.13
2022-08-26T10:45:53.136Z,96115.56
2022-08-26T10:48:20.538Z,96117.84
2022-08-26T10:50:47.950Z,96103.50
2022-08-26T10:53:14.743Z,96112.75
2022-08-26T10:55:41.517Z,96114.19
2022-08-26T10:58:10.692Z,96104.19
2022-08-26T11:00:41.316Z,96102.06
2022-08-26T11:03:21.940Z,96101.50
2022-08-26T11:05:49.568Z,96105.28
2022-08-26T11:08:21.483Z,96108.63
2022-08-26T11:10:48.432Z,96108.31
2022-08-26T11:13:15.961Z,96098.63
2022-08-26T11:15:43.506Z,96103.66
2022-08-26T11:18:12.139Z,96112.19
2022-08-26T11:20:42.196Z,96108.59
2022-08-26T11:23:09.782Z,96102.69
2022-08-26T11:25:36.720Z,96104.94
2022-08-26T11:28:03.903Z,96103.63
2022-08-26T11:30:30.621Z,96101.97
2022-08-26T11:32:58.753Z,96098.13
2022-08-26T11:35:27.745Z,96099.34
2022-08-26T11:37:54.823Z,96101.09
2022-08-26T11:40:25.672Z,96101.44
2022-08-26T11:42:54.116Z,96098.44
2022-08-26T11:45:21.146Z,96095.66
2022-08-26T11:47:50.024Z,96094.91
2022-08-26T11:50:16.882Z,96094.50
2022-08-26T11:52:45.791Z,96092.38
2022-08-26T11:55:14.514Z,96091.06
2022-08-26T11:57:41.362Z,96091.47
2022-08-26T12:00:12.508Z,96087.09
2022-08-26T12:02:41.649Z,96082.81
2022-08-26T12:05:08.559Z,96083.09
2022-08-26T12:07:36.817Z,96084.72
2022-08-26T12:10:10.289Z,96075.31
2022-08-26T12:12:37.896Z,96077.97
2022-08-26T12:15:06.831Z,96073.88
2022-08-26T12:17:34.385Z,96071.94
2022-08-26T12:20:04.858Z,96081.53
2022-08-26T12:22:33.746Z,96075.50
2022-08-26T12:25:01.089Z,96071.94
2022-08-26T12:27:27.714Z,96079.19
2022-08-26T12:29:55.087Z,96069.03
2022-08-26T12:32:21.911Z,96071.03
2022-08-26T12:34:50.482Z,96075.75
2022-08-26T12:37:18.911Z,96065.97
2022-08-26T12:39:46.367Z,96070.97
2022-08-26T12:42:13.206Z,96077.50
2022-08-26T12:44:40.182Z,96073.38
2022-08-26T12:47:07.925Z,96060.38
2022-08-26T12:49:35.883Z,96058.94
2022-08-26T12:52:02.760Z,96061.44
2022-08-26T12:54:29.535Z,96054.22
2022-08-26T12:56:57.036Z,96060.53
2022-08-26T12:59:24.364Z,96049.66
2022-08-26T13:01:53.386Z,96056.56
2022-08-26T13:04:21.064Z,96052.22
2022-08-26T13:06:52.780Z,96048.44
2022-08-26T13:09:20.515Z,96051.81
2022-08-26T13:11:48.252Z,96046.59
2022-08-26T13:14:21.077Z,96046.34
2022-08-26T13:16:50.924Z,96038.06
2022-08-26T13:19:17.690Z,96047.44
2022-08-26T13:21:53.145Z,96037.63
2022-08-26T13:24:20.040Z,96038.34
2022-08-26T13:26:46.887Z,96039.13
2022-08-26T13:29:13.675Z,96034.19
2022-08-26T13:31:41.062Z,96041.75
2022-08-26T13:34:09.767Z,96037.47
2022-08-26T13:36:37.742Z,96047.34
2022-08-26T13:39:04.848Z,96036.53
2022-08-26T13:41:31.600Z,96042.63
2022-08-26T13:43:59.513Z,96035.56
2022-08-26T13:46:28.132Z,96029.94
2022-08-26T13:48:55.065Z,96022.84
2022-08-26T13:51:22.915Z,96022.75
2022-08-26T13:53:49.813Z,96021.28
2022-08-26T13:56:17.287Z,96016.72
2022-08-26T13:58:53.759Z,96021.75
2022-08-26T14:01:21.311Z,96011.97
2022-08-26T14:03:48.377Z,96018.56
2022-08-26T14:06:16.441Z,96012.25
2022-08-26T14:08:45.232Z,96009.63
2022-08-26T14:11:12.068Z,96009.84
2022-08-26T14:13:42.126Z,96012.19
2022-08-26T14:19:02.254Z,95999.06
2022-08-26T14:21:30.580Z,95995.91
2022-08-26T14:24:00.817Z,95994.00
2022-08-26T14:26:30.141Z,95985.97
2022-08-26T14:28:57.040Z,95992.47
2022-08-26T14:33:53.982Z,95997.19
2022-08-26T14:36:21.466Z,95981.28
2022-08-26T14:38:48.345Z,95991.78
2022-08-26T14:41:18.993Z,95988.34
2022-08-26T14:43:47.367Z,95980.72
2022-08-26T14:46:20.945Z,95978.31
2022-08-26T14:48:54.879Z,95977.66
2022-08-26T14:51:34.969Z,95986.63
2022-08-26T14:54:05.728Z,95983.06
2022-08-26T14:56:36.046Z,95980.06
2022-08-26T14:59:07.915Z,95980.88
2022-08-26T15:01:39.718Z,95980.19
2022-08-26T15:04:10.515Z,95973.19
2022-08-26T15:06:42.576Z,95978.50
2022-08-26T15:09:15.215Z,95977.31
2022-08-26T15:11:44.918Z,95970.56
2022-08-26T15:14:19.877Z,95969.63
2022-08-26T15:16:47.266Z,95971.13
2022-08-26T15:22:13.227Z,95975.00
2022-08-26T15:24:40.267Z,95965.56
2022-08-26T15:29:51.454Z,95970.09
2022-08-26T15:32:19.282Z,95971.94
2022-08-26T15:34:46.550Z,95964.38
2022-08-26T15:37:17.175Z,95971.16
2022-08-26T15:39:53.137Z,95963.47
2022-08-26T15:42:20.171Z,95959.75
2022-08-26T15:44:48.400Z,95955.97
2022-08-26T15:47:19.096Z,95951.25
2022-08-26T15:49:47.393Z,95950.97
2022-08-26T15:52:20.441Z,95947.25
2022-08-26T15:57:40.731Z,95941.81
2022-08-26T16:00:09.291Z,95936.59
2022-08-26T16:02:37.401Z,95953.22
2022-08-26T16:05:07.771Z,95952.84
2022-08-26T16:07:36.494Z,95954.47
2022-08-26T16:10:04.217Z,95957.81
2022-08-26T16:12:31.816Z,95963.56
2022-08-26T16:14:58.981Z,95963.66
2022-08-26T16:17:31.153Z,95986.03
2022-08-26T16:19:58.952Z,95986.38
2022-08-26T16:22:33.316Z,95976.41
2022-08-26T16:25:00.315Z,95978.09
2022-08-26T16:27:28.370Z,95981.91
2022-08-26T16:30:01.770Z,95981.81
2022-08-26T16:32:31.391Z,95975.16
2022-08-26T16:35:04.123Z,95972.13
2022-08-26T16:37:32.501Z,95970.91
2022-08-26T16:40:02.577Z,95966.03
2022-08-26T16:42:30.721Z,95974.59
2022-08-26T16:44:57.329Z,95972.47
2022-08-26T16:47:25.193Z,95977.09
2022-08-26T16:49:51.875Z,95981.44
2022-08-26T16:52:18.800Z,95970.84
2022-08-26T16:54:48.034Z,95976.94
2022-08-26T16:57:16.303Z,95979.41
2022-08-26T16:59:43.190Z,95973.28
2022-08-26T17:05:20.582Z,95969.22
2022-08-26T17:07:49.317Z,95972.03
2022-08-26T17:10:16.769Z,95961.59
2022-08-26T17:12:43.627Z,95966.72
2022-08-26T17:15:11.282Z,95970.44
2022-08-26T17:20:30.310Z,95974.88
2022-08-26T17:23:04.559Z,95973.28
2022-08-26T17:25:41.626Z,95978.44
2022-08-26T17:28:22.603Z,95975.19
2022-08-26T17:30:56.860Z,95974.59
2022-08-26T17:33:26.467Z,95969.22
2022-08-26T17:35:54.869Z,95967.91
2022-08-26T17:38:21.749Z,95962.09
2022-08-26T17:40:53.690Z,95962.06
2022-08-26T17:43:20.230Z,95964.03
2022-08-26T17:45:48.049Z,95966.06
2022-08-26T17:48:14.864Z,95961.69
2022-08-26T17:50:42.427Z,95967.91
2022-08-26T17:53:18.671Z,95967.19
2022-08-26T17:58:38.617Z,95961.16
2022-08-26T18:01:11.927Z,95958.88
2022-08-26T18:03:45.030Z,95962.06
2022-08-26T18:06:14.473Z,95963.47
2022-08-26T18:08:42.021Z,95971.06
2022-08-26T18:11:08.948Z,95968.19
2022-08-26T18:13:35.825Z,95965.78
2022-08-26T18:18:48.715Z,95970.00
2022-08-26T18:21:15.581Z,95970.06
2022-08-26T18:26:57.437Z,95980.38
2022-08-26T18:29:24.466Z,95991.53
2022-08-26T18:31:51.262Z,95985.47
2022-08-26T18:39:36.250Z,95995.53
2022-08-26T18:42:03.139Z,95995.84
2022-08-26T18:44:29.713Z,95995.56
2022-08-26T18:46:56.184Z,96003.66
2022-08-26T18:49:23.449Z,96003.66
2022-08-26T18:51:50.082Z,96003.56
2022-08-26T18:56:50.065Z,96002.25
2022-08-26T18:59:16.866Z,96007.34
2022-08-26T19:01:47.877Z,96009.13
2022-08-26T19:04:17.191Z,96014.69
2022-08-26T19:06:43.856Z,96015.19
2022-08-26T19:09:10.767Z,96016.69
2022-08-26T19:11:42.319Z,96012.59
2022-08-26T19:14:09.792Z,96016.41
2022-08-26T19:16:37.584Z,96014.44
2022-08-26T19:19:04.265Z,96014.75
2022-08-26T19:21:31.006Z,96017.47
2022-08-26T19:23:57.663Z,96022.47
2022-08-26T19:26:24.510Z,96017.75
2022-08-26T19:28:51.061Z,96014.91
2022-08-26T19:31:17.949Z,96017.50
2022-08-26T19:33:47.205Z,96010.84
2022-08-26T19:36:14.948Z,96015.72
2022-08-26T19:38:41.737Z,96011.84
2022-08-26T19:41:08.493Z,96015.94
2022-08-26T19:43:37.494Z,96015.84
2022-08-26T19:46:17.634Z,96019.47
2022-08-26T19:48:55.815Z,96025.09
2022-08-26T19:54:00.156Z,96022.50
2022-08-26T19:56:30.177Z,96019.59
2022-08-26T19:58:59.684Z,96017.72
2022-08-26T20:04:13.928Z,96021.47
2022-08-26T20:06:40.652Z,96026.56
2022-08-26T20:09:07.822Z,96029.13
2022-08-26T20:11:34.566Z,96024.38
2022-08-26T20:14:01.274Z,96029.16
2022-08-26T20:16:27.809Z,96021.66
2022-08-26T20:18:54.588Z,96021.28
2022-08-26T20:21:24.103Z,96022.91
2022-08-26T20:23:52.477Z,96013.78
2022-08-26T20:26:19.052Z,96021.13
2022-08-26T20:28:51.049Z,96021.56
2022-08-26T20:33:50.188Z,96026.34
2022-08-26T20:36:16.869Z,96025.25
2022-08-26T20:38:44.458Z,96017.50
2022-08-26T20:41:11.975Z,96019.88
2022-08-26T20:43:38.967Z,96023.56
2022-08-26T20:46:08.264Z,96025.28
2022-08-26T20:48:39.378Z,96023.22
2022-08-26T20:51:06.891Z,96024.66
2022-08-26T20:53:33.853Z,96024.69
2022-08-26T20:56:01.893Z,96024.78
2022-08-26T20:58:29.032Z,96028.31
2022-08-26T21:00:55.953Z,96031.22
2022-08-26T21:03:22.638Z,96034.78
2022-08-26T21:05:49.567Z,96035.78
2022-08-26T21:08:16.173Z,96039.94
2022-08-26T21:10:42.852Z,96041.78
2022-08-26T21:13:10.945Z,96029.72
2022-08-26T21:15:37.620Z,96038.81
2022-08-26T21:18:04.222Z,96040.47
2022-08-26T21:20:30.943Z,96043.88
2022-08-26T21:22:57.656Z,96044.84
2022-08-26T21:25:24.337Z,96041.03
2022-08-26T21:27:50.968Z,96051.63
2022-08-26T21:30:17.803Z,96041.81
2022-08-26T21:32:44.711Z,96033.91
2022-08-26T21:35:20.217Z,96048.13
2022-08-26T21:37:47.088Z,96044.69
2022-08-26T21:40:13.689Z,96036.75
2022-08-26T21:42:40.576Z,96036.84
2022-08-26T21:45:07.227Z,96037.34
2022-08-26T21:47:34.104Z,96043.63
2022-08-26T21:50:00.617Z,96031.00
2022-08-26T21:52:27.139Z,96040.53
2022-08-26T21:54:53.994Z,96038.88
2022-08-26T21:57:20.526Z,96036.41
2022-08-26T21:59:47.173Z,96030.88
2022-08-26T22:02:13.827Z,96032.31
2022-08-26T22:04:40.501Z,96029.47
2022-08-26T22:07:07.397Z,96034.06
2022-08-26T22:09:33.920Z,96033.72
2022-08-26T22:12:03.828Z,96036.31
2022-08-26T22:14:31.076Z,96036.38
2022-08-26T22:16:57.619Z,96043.22
2022-08-26T22:19:24.258Z,96042.94
2022-08-26T22:21:51.000Z,96036.31
2022-08-26T22:24:18.228Z,96038.00
2022-08-26T22:26:44.817Z,96038.44
2022-08-26T22:29:11.487Z,96043.09
2022-08-26T22:31:38.789Z,96046.00
2022-08-26T22:34:05.658Z,96044.22
2022-08-26T22:36:33.213Z,96045.13
2022-08-26T22:39:00.088Z,96048.03
2022-08-26T22:41:26.666Z,96043.19
